createdAt,value
2017-12-12T00:04:15.670Z,9.73
2017-12-12T00:09:17.352Z,8.20
2017-12-12T00:14:19.067Z,8.10
2017-12-12T00:19:20.774Z,9.27
2017-12-12T00:24:22.506Z,8.60
2017-12-12T00:29:24.321Z,9.90
2017-12-12T00:34:26.808Z,10.77
2017-12-12T00:39:28.541Z,11.30
2017-12-12T00:44:30.247Z,18.00
2017-12-12T00:49:32.065Z,19.50
2017-12-12T00:54:33.884Z,22.13
2017-12-12T00:59:35.596Z,22.53
2017-12-12T01:04:38.117Z,22.70
2017-12-12T01:09:40.585Z,22.33
2017-12-12T01:14:45.060Z,22.47
2017-12-12T01:19:47.541Z,24.13
2017-12-12T01:24:49.251Z,21.60
2017-12-12T01:29:50.945Z,27.20
2017-12-12T01:34:53.199Z,21.67
2017-12-12T01:39:55.028Z,22.77
2017-12-12T01:44:56.841Z,21.47
2017-12-12T01:49:58.617Z,19.10
2017-12-12T01:55:00.583Z,20.27
2017-12-12T02:00:03.557Z,19.90
2017-12-12T02:05:05.295Z,19.57
2017-12-12T02:10:07.493Z,20.37
2017-12-12T02:15:09.359Z,18.73
2017-12-12T02:20:11.165Z,16.40
2017-12-12T02:25:12.945Z,15.27
2017-12-12T02:30:14.721Z,13.70
2017-12-12T02:35:17.205Z,14.33
2017-12-12T02:40:19.014Z,12.37
2017-12-12T02:45:20.814Z,10.03
2017-12-12T02:50:22.613Z,11.00
2017-12-12T02:55:24.482Z,10.87
2017-12-12T03:00:27.259Z,11.27
2017-12-12T03:05:29.769Z,11.13
2017-12-12T03:10:32.835Z,11.10
2017-12-12T03:15:34.618Z,11.13
2017-12-12T03:20:37.146Z,11.30
2017-12-12T03:25:38.932Z,11.20
2017-12-12T03:30:40.718Z,12.70
2017-12-12T03:35:42.559Z,12.67
2017-12-12T03:40:44.343Z,13.60
2017-12-12T03:45:46.167Z,12.53
2017-12-12T03:50:47.939Z,14.10
2017-12-12T03:55:50.489Z,13.43
2017-12-12T04:00:53.194Z,12.63
2017-12-12T04:05:54.978Z,12.90
2017-12-12T04:10:57.501Z,11.90
2017-12-12T04:15:59.273Z,11.53
2017-12-12T04:21:01.150Z,10.90
2017-12-12T04:26:02.964Z,11.30
2017-12-12T04:31:04.795Z,10.20
2017-12-12T04:36:06.603Z,9.60
2017-12-12T04:41:08.526Z,10.23
2017-12-12T04:46:10.376Z,9.77
2017-12-12T04:51:12.246Z,9.87
2017-12-12T04:56:14.959Z,10.43
2017-12-12T05:01:16.773Z,9.40
2017-12-12T05:06:18.541Z,10.97
2017-12-12T05:11:20.373Z,9.60
2017-12-12T05:16:22.159Z,8.80
2017-12-12T05:21:23.960Z,10.30
2017-12-12T05:26:25.857Z,11.03
2017-12-12T05:31:29.621Z,10.40
2017-12-12T05:36:31.412Z,10.70
2017-12-12T05:41:33.137Z,10.20
2017-12-12T05:46:35.432Z,9.93
2017-12-12T05:51:38.154Z,10.20
2017-12-12T05:56:39.949Z,9.73
2017-12-12T06:01:41.685Z,10.17
2017-12-12T06:06:44.373Z,10.50
2017-12-12T06:11:46.153Z,10.00
2017-12-12T06:16:47.940Z,9.30
2017-12-12T06:21:49.713Z,9.90
2017-12-12T06:26:51.490Z,9.30
2017-12-12T06:31:53.655Z,9.90
2017-12-12T06:36:55.520Z,9.53
2017-12-12T06:41:57.283Z,10.40
2017-12-12T06:46:59.040Z,11.93
2017-12-12T06:52:01.730Z,11.23
2017-12-12T06:57:03.465Z,12.70
2017-12-12T07:02:05.201Z,12.30
2017-12-12T07:07:06.980Z,12.77
2017-12-12T07:12:08.725Z,12.53
2017-12-12T07:17:10.510Z,12.57
2017-12-12T07:22:12.265Z,12.60
2017-12-12T07:27:14.027Z,12.33
2017-12-12T07:32:15.754Z,13.83
2017-12-12T07:37:18.206Z,12.80
2017-12-12T07:42:19.917Z,13.70
2017-12-12T07:47:21.622Z,14.27
2017-12-12T07:52:23.341Z,13.87
2017-12-12T07:57:25.097Z,13.77
2017-12-12T08:02:26.860Z,13.10
2017-12-12T08:07:29.319Z,12.20
2017-12-12T08:12:31.033Z,11.67
2017-12-12T08:17:32.797Z,12.13
2017-12-12T08:22:34.687Z,12.03
2017-12-12T08:27:37.264Z,12.17
2017-12-12T08:32:39.014Z,10.23
2017-12-12T08:37:40.780Z,12.20
2017-12-12T08:42:43.230Z,11.40
2017-12-12T08:47:45.020Z,11.20
2017-12-12T08:52:46.821Z,10.20
2017-12-12T08:57:48.578Z,10.20
2017-12-12T09:02:50.308Z,12.60
2017-12-12T09:07:52.072Z,10.73
2017-12-12T09:12:53.835Z,11.10
2017-12-12T09:17:55.648Z,10.47
2017-12-12T09:22:57.351Z,11.67
2017-12-12T09:27:59.094Z,11.00
2017-12-12T09:33:01.602Z,10.43
2017-12-12T09:38:03.324Z,11.13
2017-12-12T09:43:05.056Z,11.17
2017-12-12T09:48:06.824Z,11.37
2017-12-12T09:53:08.635Z,11.13
2017-12-12T09:58:10.420Z,10.30
2017-12-12T10:03:12.174Z,11.80
2017-12-12T10:08:13.939Z,10.10
2017-12-12T10:13:15.655Z,10.43
2017-12-12T10:18:17.413Z,10.73
2017-12-12T10:23:19.171Z,10.20
2017-12-12T10:28:20.863Z,10.60
2017-12-12T10:33:22.638Z,10.80
2017-12-12T10:38:24.436Z,10.67
2017-12-12T10:43:26.213Z,11.00
2017-12-12T10:48:27.998Z,10.10
2017-12-12T10:53:30.554Z,10.07
2017-12-12T10:58:32.341Z,9.33
2017-12-12T11:03:34.147Z,8.60
2017-12-12T11:08:35.896Z,8.53
2017-12-12T11:13:37.656Z,8.43
2017-12-12T11:18:39.397Z,7.33
2017-12-12T11:23:41.159Z,7.30
2017-12-12T11:28:42.936Z,6.03
2017-12-12T11:33:44.694Z,5.90
2017-12-12T11:38:46.407Z,5.70
2017-12-12T11:43:48.090Z,6.03
2017-12-12T11:48:49.785Z,6.60
2017-12-12T11:53:51.577Z,6.10
2017-12-12T11:58:53.417Z,5.30
2017-12-12T12:03:55.191Z,5.20
2017-12-12T12:08:56.925Z,5.33
2017-12-12T12:13:58.693Z,5.37
2017-12-12T12:19:00.444Z,5.83
2017-12-12T12:24:02.260Z,6.20
2017-12-12T12:29:04.852Z,5.60
2017-12-12T12:34:06.646Z,6.13
2017-12-12T12:39:08.432Z,5.70
2017-12-12T12:44:11.843Z,5.50
2017-12-12T12:49:14.575Z,5.27
2017-12-12T12:54:17.110Z,4.80
2017-12-12T12:59:20.868Z,4.63
2017-12-12T13:04:23.298Z,4.00
2017-12-12T13:09:26.957Z,4.10
2017-12-12T13:14:29.663Z,3.57
2017-12-12T13:19:32.433Z,3.57
2017-12-12T13:24:34.412Z,3.70
2017-12-12T13:29:37.026Z,3.63
2017-12-12T13:34:39.626Z,3.73
2017-12-12T13:39:41.578Z,3.60
2017-12-12T13:44:43.383Z,3.80
2017-12-12T13:49:45.097Z,4.10
2017-12-12T13:54:47.689Z,3.87
2017-12-12T13:59:49.378Z,3.80
2017-12-12T14:04:51.090Z,3.73
2017-12-12T14:09:52.830Z,3.97
2017-12-12T14:14:54.593Z,4.00
2017-12-12T14:19:56.359Z,3.80
2017-12-12T14:24:58.090Z,3.70
2017-12-12T14:29:59.894Z,3.30
2017-12-12T14:35:01.634Z,3.20
2017-12-12T14:40:03.510Z,2.90
2017-12-12T14:45:05.954Z,3.60
2017-12-12T14:50:07.684Z,3.40
2017-12-12T14:55:09.486Z,3.80
2017-12-12T15:00:11.378Z,4.40
2017-12-12T15:05:13.101Z,4.90
2017-12-12T15:10:14.954Z,6.30
2017-12-12T15:15:16.762Z,6.30
2017-12-12T15:20:18.462Z,7.87
2017-12-12T15:25:20.173Z,8.53
2017-12-12T15:30:21.947Z,9.80
2017-12-12T15:35:23.745Z,8.77
2017-12-12T15:40:26.210Z,9.43
2017-12-12T15:45:28.110Z,9.60
2017-12-12T15:50:29.844Z,10.17
2017-12-12T15:55:32.400Z,10.90
2017-12-12T16:00:34.192Z,12.43
2017-12-12T16:05:35.934Z,13.23
2017-12-12T16:10:37.674Z,13.90
2017-12-12T16:15:39.428Z,14.27
2017-12-12T16:20:41.177Z,14.53
2017-12-12T16:25:44.165Z,16.00
2017-12-12T16:30:45.919Z,14.53
2017-12-12T16:35:47.670Z,16.63
2017-12-12T16:40:49.500Z,17.23
2017-12-12T16:45:51.726Z,17.43
2017-12-12T16:50:53.466Z,17.37
2017-12-12T16:55:55.420Z,18.17
2017-12-12T17:00:57.136Z,18.00
2017-12-12T17:05:58.894Z,17.70
2017-12-12T17:11:02.018Z,19.00
2017-12-12T17:16:03.768Z,16.40
2017-12-12T17:21:05.838Z,17.30
2017-12-12T17:26:07.928Z,17.53
2017-12-12T17:31:10.063Z,18.30
2017-12-12T17:36:11.828Z,17.63
2017-12-12T17:41:13.986Z,16.57
2017-12-12T17:46:15.743Z,17.60
2017-12-12T17:51:17.491Z,19.20
2017-12-12T17:56:19.278Z,18.83
2017-12-12T18:01:20.978Z,18.37
2017-12-12T18:06:23.891Z,17.43
2017-12-12T18:11:25.718Z,18.63
2017-12-12T18:16:27.449Z,17.27
2017-12-12T18:21:29.192Z,17.07
2017-12-12T18:26:30.919Z,18.23
2017-12-12T18:31:32.695Z,18.87
2017-12-12T18:36:34.392Z,17.37
2017-12-12T18:41:36.423Z,17.77
2017-12-12T18:46:38.112Z,18.10
2017-12-12T18:51:40.842Z,19.67
2017-12-12T18:56:42.574Z,19.00
2017-12-12T19:01:48.947Z,18.70
2017-12-12T19:06:51.502Z,18.30
2017-12-12T19:11:53.542Z,20.10
2017-12-12T19:16:55.294Z,19.63
2017-12-12T19:21:57.107Z,19.37
2017-12-12T19:26:58.940Z,17.20
2017-12-12T19:32:00.743Z,18.67
2017-12-12T19:37:02.594Z,18.23
2017-12-12T19:42:04.398Z,18.70
2017-12-12T19:47:06.174Z,19.37
2017-12-12T19:52:07.933Z,18.20
2017-12-12T19:57:10.510Z,20.00
2017-12-12T20:02:12.310Z,17.87
2017-12-12T20:07:14.158Z,18.80
2017-12-12T20:12:16.754Z,18.90
2017-12-12T20:17:19.888Z,18.53
2017-12-12T20:22:21.691Z,17.67
2017-12-12T20:27:24.211Z,20.90
2017-12-12T20:32:25.959Z,17.47
2017-12-12T20:37:27.703Z,17.07
2017-12-12T20:42:29.437Z,17.57
2017-12-12T20:47:31.158Z,18.77
2017-12-12T20:52:32.894Z,17.90
2017-12-12T20:57:35.542Z,18.57
2017-12-12T21:02:37.246Z,17.70
2017-12-12T21:07:39.015Z,16.57
2017-12-12T21:12:40.771Z,18.33
2017-12-12T21:17:42.539Z,17.37
2017-12-12T21:22:45.009Z,17.50
2017-12-12T21:27:46.757Z,17.50
2017-12-12T21:32:48.570Z,16.83
2017-12-12T21:37:50.493Z,15.50
2017-12-12T21:42:52.528Z,16.90
2017-12-12T21:48:01.468Z,16.57
2017-12-12T21:53:03.370Z,16.40
2017-12-12T21:58:05.380Z,17.40
2017-12-12T22:03:07.455Z,19.00
2017-12-12T22:08:09.172Z,18.80
2017-12-12T22:13:11.042Z,20.13
2017-12-12T22:18:13.553Z,21.03
2017-12-12T22:23:16.048Z,22.20
2017-12-12T22:28:17.796Z,20.20
2017-12-12T22:33:19.536Z,21.27
2017-12-12T22:38:21.842Z,20.67
2017-12-12T22:43:23.580Z,22.37
2017-12-12T22:48:25.364Z,23.40
2017-12-12T22:53:27.169Z,24.70
2017-12-12T22:58:28.933Z,24.80
2017-12-12T23:03:30.814Z,26.30
2017-12-12T23:08:32.642Z,25.83
2017-12-12T23:13:34.355Z,25.50
2017-12-12T23:18:36.105Z,25.47
2017-12-12T23:23:38.204Z,23.40
2017-12-12T23:28:40.337Z,21.10
2017-12-12T23:33:42.105Z,21.60
2017-12-12T23:38:44.578Z,21.87
2017-12-12T23:43:46.406Z,19.87
2017-12-12T23:48:48.339Z,18.30
2017-12-12T23:53:50.120Z,19.67
2017-12-12T23:58:52.719Z,19.27
